sensor_id;sensor_type;location;lat;lon;timestamp;P1;durP1;ratioP1;P2;durP2;ratioP2
53287;SDS011;39172;45.550;12.072;2023-02-28T00:03:10;5.82;;;4.05;;
53287;SDS011;39172;45.550;12.072;2023-02-28T00:09:11;5.25;;;3.63;;
53287;SDS011;39172;45.550;12.072;2023-02-28T00:15:12;4.68;;;3.72;;
53287;SDS011;39172;45.550;12.072;2023-02-28T00:21:13;5.25;;;3.70;;
53287;SDS011;39172;45.550;12.072;2023-02-28T00:27:14;5.00;;;3.50;;
53287;SDS011;39172;45.550;12.072;2023-02-28T00:33:15;3.78;;;2.90;;
53287;SDS011;39172;45.550;12.072;2023-02-28T00:39:16;4.93;;;3.25;;
53287;SDS011;39172;45.550;12.072;2023-02-28T00:45:17;3.55;;;2.70;;
53287;SDS011;39172;45.550;12.072;2023-02-28T00:51:18;4.47;;;3.30;;
53287;SDS011;39172;45.550;12.072;2023-02-28T00:57:19;4.15;;;3.20;;
53287;SDS011;39172;45.550;12.072;2023-02-28T01:03:20;5.38;;;3.97;;
53287;SDS011;39172;45.550;12.072;2023-02-28T01:09:21;6.07;;;4.07;;
53287;SDS011;39172;45.550;12.072;2023-02-28T01:15:22;5.95;;;3.85;;
53287;SDS011;39172;45.550;12.072;2023-02-28T01:21:23;5.43;;;3.85;;
53287;SDS011;39172;45.550;12.072;2023-02-28T01:27:24;5.75;;;3.95;;
53287;SDS011;39172;45.550;12.072;2023-02-28T01:33:27;5.32;;;3.70;;
53287;SDS011;39172;45.550;12.072;2023-02-28T01:39:27;4.28;;;3.15;;
53287;SDS011;39172;45.550;12.072;2023-02-28T01:45:29;3.47;;;2.88;;
53287;SDS011;39172;45.550;12.072;2023-02-28T01:51:34;4.05;;;3.00;;
53287;SDS011;39172;45.550;12.072;2023-02-28T01:57:40;4.43;;;3.65;;
53287;SDS011;39172;45.550;12.072;2023-02-28T02:03:42;4.90;;;3.65;;
53287;SDS011;39172;45.550;12.072;2023-02-28T02:09:43;5.22;;;3.75;;
53287;SDS011;39172;45.550;12.072;2023-02-28T02:15:48;4.53;;;3.38;;
53287;SDS011;39172;45.550;12.072;2023-02-28T02:22:12;5.32;;;3.53;;
53287;SDS011;39172;45.550;12.072;2023-02-28T02:41:26;4.10;;;3.00;;
53287;SDS011;39172;45.550;12.072;2023-02-28T02:47:18;3.30;;;2.72;;
53287;SDS011;39172;45.550;12.072;2023-02-28T02:53:21;5.00;;;2.90;;
53287;SDS011;39172;45.550;12.072;2023-02-28T02:59:24;4.55;;;3.20;;
53287;SDS011;39172;45.550;12.072;2023-02-28T03:05:27;4.43;;;3.55;;
53287;SDS011;39172;45.550;12.072;2023-02-28T03:11:30;4.93;;;3.35;;
53287;SDS011;39172;45.550;12.072;2023-02-28T03:29:55;5.50;;;4.10;;
53287;SDS011;39172;45.550;12.072;2023-02-28T03:36:04;4.90;;;3.83;;
53287;SDS011;39172;45.550;12.072;2023-02-28T03:42:23;5.18;;;3.97;;
53287;SDS011;39172;45.550;12.072;2023-02-28T03:48:29;5.72;;;4.30;;
53287;SDS011;39172;45.550;12.072;2023-02-28T03:54:33;6.00;;;4.30;;
53287;SDS011;39172;45.550;12.072;2023-02-28T04:00:36;6.47;;;4.45;;
53287;SDS011;39172;45.550;12.072;2023-02-28T04:06:39;6.47;;;4.28;;
53287;SDS011;39172;45.550;12.072;2023-02-28T04:12:40;6.00;;;4.32;;
53287;SDS011;39172;45.550;12.072;2023-02-28T04:18:41;6.25;;;4.80;;
53287;SDS011;39172;45.550;12.072;2023-02-28T04:24:43;5.80;;;4.40;;
53287;SDS011;39172;45.550;12.072;2023-02-28T04:30:45;7.47;;;4.88;;
53287;SDS011;39172;45.550;12.072;2023-02-28T04:36:45;6.28;;;4.63;;
53287;SDS011;39172;45.550;12.072;2023-02-28T04:42:46;7.25;;;4.50;;
53287;SDS011;39172;45.550;12.072;2023-02-28T04:48:47;6.22;;;4.68;;
53287;SDS011;39172;45.550;12.072;2023-02-28T04:54:48;5.88;;;4.47;;
53287;SDS011;39172;45.550;12.072;2023-02-28T05:00:50;6.68;;;4.80;;
53287;SDS011;39172;45.550;12.072;2023-02-28T05:06:51;5.93;;;4.25;;
53287;SDS011;39172;45.550;12.072;2023-02-28T05:12:52;5.55;;;4.43;;
53287;SDS011;39172;45.550;12.072;2023-02-28T05:18:53;6.30;;;4.70;;
53287;SDS011;39172;45.550;12.072;2023-02-28T05:24:54;6.30;;;4.63;;
53287;SDS011;39172;45.550;12.072;2023-02-28T05:30:55;5.93;;;4.38;;
53287;SDS011;39172;45.550;12.072;2023-02-28T05:36:56;7.18;;;4.68;;
53287;SDS011;39172;45.550;12.072;2023-02-28T05:42:57;5.47;;;4.35;;
53287;SDS011;39172;45.550;12.072;2023-02-28T05:48:57;7.80;;;4.80;;
53287;SDS011;39172;45.550;12.072;2023-02-28T05:55:00;6.22;;;4.50;;
53287;SDS011;39172;45.550;12.072;2023-02-28T06:01:18;7.63;;;4.78;;
53287;SDS011;39172;45.550;12.072;2023-02-28T06:07:19;6.75;;;4.57;;
53287;SDS011;39172;45.550;12.072;2023-02-28T06:13:20;5.90;;;3.88;;
53287;SDS011;39172;45.550;12.072;2023-02-28T06:19:21;5.65;;;3.80;;
53287;SDS011;39172;45.550;12.072;2023-02-28T06:25:23;4.80;;;3.15;;
53287;SDS011;39172;45.550;12.072;2023-02-28T06:31:24;5.03;;;3.47;;
53287;SDS011;39172;45.550;12.072;2023-02-28T06:37:26;6.60;;;4.45;;
53287;SDS011;39172;45.550;12.072;2023-02-28T06:43:28;7.90;;;5.32;;
53287;SDS011;39172;45.550;12.072;2023-02-28T06:49:30;10.82;;;6.25;;
53287;SDS011;39172;45.550;12.072;2023-02-28T06:55:31;11.65;;;6.90;;
53287;SDS011;39172;45.550;12.072;2023-02-28T07:01:32;9.98;;;5.97;;
53287;SDS011;39172;45.550;12.072;2023-02-28T07:07:33;7.97;;;5.40;;
53287;SDS011;39172;45.550;12.072;2023-02-28T07:13:35;10.60;;;6.40;;
53287;SDS011;39172;45.550;12.072;2023-02-28T07:19:35;9.95;;;6.13;;
53287;SDS011;39172;45.550;12.072;2023-02-28T07:25:36;8.63;;;5.82;;
53287;SDS011;39172;45.550;12.072;2023-02-28T07:31:37;9.82;;;5.88;;
53287;SDS011;39172;45.550;12.072;2023-02-28T07:37:38;10.57;;;6.10;;
53287;SDS011;39172;45.550;12.072;2023-02-28T07:43:39;9.90;;;6.07;;
53287;SDS011;39172;45.550;12.072;2023-02-28T07:49:40;9.57;;;6.18;;
53287;SDS011;39172;45.550;12.072;2023-02-28T07:55:40;10.43;;;5.97;;
53287;SDS011;39172;45.550;12.072;2023-02-28T08:01:41;8.63;;;5.68;;
53287;SDS011;39172;45.550;12.072;2023-02-28T08:07:45;10.57;;;5.97;;
53287;SDS011;39172;45.550;12.072;2023-02-28T08:13:46;11.45;;;6.40;;
53287;SDS011;39172;45.550;12.072;2023-02-28T08:19:47;10.38;;;5.63;;
53287;SDS011;39172;45.550;12.072;2023-02-28T08:25:55;8.77;;;5.93;;
53287;SDS011;39172;45.550;12.072;2023-02-28T08:31:56;11.13;;;5.97;;
53287;SDS011;39172;45.550;12.072;2023-02-28T08:37:57;9.25;;;6.18;;
53287;SDS011;39172;45.550;12.072;2023-02-28T08:43:58;10.52;;;5.97;;
53287;SDS011;39172;45.550;12.072;2023-02-28T08:49:59;8.10;;;5.45;;
53287;SDS011;39172;45.550;12.072;2023-02-28T08:56:04;10.52;;;5.88;;
53287;SDS011;39172;45.550;12.072;2023-02-28T09:02:05;9.32;;;5.53;;
53287;SDS011;39172;45.550;12.072;2023-02-28T09:08:06;9.65;;;5.30;;
53287;SDS011;39172;45.550;12.072;2023-02-28T09:14:07;9.95;;;5.65;;
53287;SDS011;39172;45.550;12.072;2023-02-28T09:20:08;8.77;;;5.55;;
53287;SDS011;39172;45.550;12.072;2023-02-28T09:26:20;11.32;;;6.38;;
53287;SDS011;39172;45.550;12.072;2023-02-28T09:32:22;11.52;;;5.80;;
53287;SDS011;39172;45.550;12.072;2023-02-28T09:38:23;8.60;;;5.07;;
53287;SDS011;39172;45.550;12.072;2023-02-28T09:56:41;7.90;;;4.63;;
53287;SDS011;39172;45.550;12.072;2023-02-28T10:15:04;10.02;;;5.68;;
53287;SDS011;39172;45.550;12.072;2023-02-28T10:21:05;8.88;;;4.70;;
53287;SDS011;39172;45.550;12.072;2023-02-28T10:33:17;8.20;;;5.40;;
53287;SDS011;39172;45.550;12.072;2023-02-28T10:39:35;9.07;;;5.25;;
53287;SDS011;39172;45.550;12.072;2023-02-28T10:45:38;8.80;;;4.85;;
53287;SDS011;39172;45.550;12.072;2023-02-28T10:51:39;7.75;;;4.35;;
53287;SDS011;39172;45.550;12.072;2023-02-28T10:57:41;7.75;;;5.07;;
53287;SDS011;39172;45.550;12.072;2023-02-28T11:03:42;6.55;;;4.30;;
53287;SDS011;39172;45.550;12.072;2023-02-28T11:09:44;6.70;;;3.78;;
53287;SDS011;39172;45.550;12.072;2023-02-28T11:15:53;7.25;;;3.78;;
53287;SDS011;39172;45.550;12.072;2023-02-28T11:21:55;8.07;;;5.10;;
53287;SDS011;39172;45.550;12.072;2023-02-28T11:27:58;7.80;;;4.50;;
53287;SDS011;39172;45.550;12.072;2023-02-28T11:34:01;9.02;;;5.25;;
53287;SDS011;39172;45.550;12.072;2023-02-28T11:40:02;9.25;;;5.72;;
53287;SDS011;39172;45.550;12.072;2023-02-28T11:52:37;7.03;;;4.63;;
53287;SDS011;39172;45.550;12.072;2023-02-28T12:29:28;5.47;;;3.83;;
53287;SDS011;39172;45.550;12.072;2023-02-28T12:41:51;8.38;;;4.70;;
53287;SDS011;39172;45.550;12.072;2023-02-28T12:47:57;7.40;;;4.10;;
53287;SDS011;39172;45.550;12.072;2023-02-28T13:00:10;6.75;;;4.25;;
53287;SDS011;39172;45.550;12.072;2023-02-28T13:06:17;7.22;;;4.57;;
53287;SDS011;39172;45.550;12.072;2023-02-28T13:12:20;7.07;;;4.47;;
53287;SDS011;39172;45.550;12.072;2023-02-28T13:18:33;6.13;;;4.10;;
53287;SDS011;39172;45.550;12.072;2023-02-28T13:36:51;9.40;;;4.22;;
53287;SDS011;39172;45.550;12.072;2023-02-28T13:43:12;5.55;;;3.70;;
53287;SDS011;39172;45.550;12.072;2023-02-28T13:55:33;6.45;;;3.67;;
53287;SDS011;39172;45.550;12.072;2023-02-28T14:01:59;6.37;;;3.83;;
53287;SDS011;39172;45.550;12.072;2023-02-28T14:07:56;7.00;;;3.95;;
53287;SDS011;39172;45.550;12.072;2023-02-28T14:13:58;5.88;;;3.60;;
53287;SDS011;39172;45.550;12.072;2023-02-28T14:19:59;7.35;;;4.10;;
53287;SDS011;39172;45.550;12.072;2023-02-28T14:38:46;5.65;;;3.60;;
53287;SDS011;39172;45.550;12.072;2023-02-28T14:44:39;6.32;;;3.88;;
53287;SDS011;39172;45.550;12.072;2023-02-28T14:50:39;5.53;;;3.40;;
53287;SDS011;39172;45.550;12.072;2023-02-28T14:56:48;7.32;;;4.65;;
53287;SDS011;39172;45.550;12.072;2023-02-28T15:02:50;6.15;;;3.90;;
53287;SDS011;39172;45.550;12.072;2023-02-28T15:09:07;5.30;;;3.72;;
53287;SDS011;39172;45.550;12.072;2023-02-28T15:15:17;6.63;;;3.88;;
53287;SDS011;39172;45.550;12.072;2023-02-28T15:27:27;8.77;;;4.72;;
53287;SDS011;39172;45.550;12.072;2023-02-28T15:33:31;11.07;;;5.13;;
53287;SDS011;39172;45.550;12.072;2023-02-28T15:39:32;8.48;;;4.65;;
53287;SDS011;39172;45.550;12.072;2023-02-28T15:52:01;6.43;;;4.35;;
53287;SDS011;39172;45.550;12.072;2023-02-28T15:58:02;7.38;;;4.60;;
53287;SDS011;39172;45.550;12.072;2023-02-28T16:04:10;10.48;;;5.32;;
53287;SDS011;39172;45.550;12.072;2023-02-28T16:10:13;8.68;;;4.95;;
53287;SDS011;39172;45.550;12.072;2023-02-28T16:16:21;8.45;;;4.85;;
53287;SDS011;39172;45.550;12.072;2023-02-28T16:22:22;7.93;;;4.85;;
53287;SDS011;39172;45.550;12.072;2023-02-28T16:28:24;7.82;;;4.53;;
53287;SDS011;39172;45.550;12.072;2023-02-28T16:34:25;7.22;;;3.97;;
53287;SDS011;39172;45.550;12.072;2023-02-28T16:40:26;7.35;;;3.95;;
53287;SDS011;39172;45.550;12.072;2023-02-28T16:46:33;9.73;;;5.38;;
53287;SDS011;39172;45.550;12.072;2023-02-28T16:52:34;9.05;;;5.60;;
53287;SDS011;39172;45.550;12.072;2023-02-28T16:58:35;10.63;;;5.45;;
53287;SDS011;39172;45.550;12.072;2023-02-28T17:04:36;7.93;;;5.13;;
53287;SDS011;39172;45.550;12.072;2023-02-28T17:10:37;6.63;;;4.10;;
53287;SDS011;39172;45.550;12.072;2023-02-28T17:16:38;6.15;;;3.45;;
53287;SDS011;39172;45.550;12.072;2023-02-28T17:22:40;7.13;;;3.70;;
53287;SDS011;39172;45.550;12.072;2023-02-28T17:28:41;8.13;;;4.30;;
53287;SDS011;39172;45.550;12.072;2023-02-28T17:34:42;6.32;;;3.90;;
53287;SDS011;39172;45.550;12.072;2023-02-28T17:40:44;6.85;;;4.20;;
53287;SDS011;39172;45.550;12.072;2023-02-28T17:46:45;7.63;;;5.43;;
53287;SDS011;39172;45.550;12.072;2023-02-28T17:52:46;10.68;;;6.43;;
53287;SDS011;39172;45.550;12.072;2023-02-28T17:58:47;11.93;;;6.63;;
53287;SDS011;39172;45.550;12.072;2023-02-28T18:04:48;8.52;;;5.43;;
53287;SDS011;39172;45.550;12.072;2023-02-28T18:10:49;9.48;;;6.13;;
53287;SDS011;39172;45.550;12.072;2023-02-28T18:16:50;10.02;;;6.72;;
53287;SDS011;39172;45.550;12.072;2023-02-28T18:22:52;10.75;;;7.10;;
53287;SDS011;39172;45.550;12.072;2023-02-28T18:28:52;11.85;;;7.60;;
53287;SDS011;39172;45.550;12.072;2023-02-28T18:34:53;9.10;;;6.13;;
53287;SDS011;39172;45.550;12.072;2023-02-28T18:40:55;8.23;;;5.68;;
53287;SDS011;39172;45.550;12.072;2023-02-28T18:46:56;8.57;;;5.95;;
53287;SDS011;39172;45.550;12.072;2023-02-28T18:52:57;9.32;;;6.50;;
53287;SDS011;39172;45.550;12.072;2023-02-28T18:58:58;9.68;;;6.70;;
53287;SDS011;39172;45.550;12.072;2023-02-28T19:04:59;9.38;;;6.13;;
53287;SDS011;39172;45.550;12.072;2023-02-28T19:11:13;8.70;;;5.75;;
53287;SDS011;39172;45.550;12.072;2023-02-28T19:17:15;12.65;;;8.30;;
53287;SDS011;39172;45.550;12.072;2023-02-28T19:23:16;12.73;;;8.73;;
53287;SDS011;39172;45.550;12.072;2023-02-28T19:29:17;12.48;;;8.30;;
53287;SDS011;39172;45.550;12.072;2023-02-28T19:35:18;13.88;;;9.15;;
53287;SDS011;39172;45.550;12.072;2023-02-28T19:41:19;13.30;;;8.88;;
53287;SDS011;39172;45.550;12.072;2023-02-28T19:47:20;14.90;;;9.57;;
53287;SDS011;39172;45.550;12.072;2023-02-28T19:53:21;15.32;;;10.07;;
53287;SDS011;39172;45.550;12.072;2023-02-28T19:59:22;13.52;;;9.85;;
53287;SDS011;39172;45.550;12.072;2023-02-28T20:05:24;14.18;;;9.55;;
53287;SDS011;39172;45.550;12.072;2023-02-28T20:11:24;17.20;;;10.93;;
53287;SDS011;39172;45.550;12.072;2023-02-28T20:17:27;17.05;;;9.82;;
53287;SDS011;39172;45.550;12.072;2023-02-28T20:23:28;16.98;;;10.13;;
53287;SDS011;39172;45.550;12.072;2023-02-28T20:29:29;14.52;;;9.63;;
53287;SDS011;39172;45.550;12.072;2023-02-28T20:35:29;14.18;;;8.68;;
53287;SDS011;39172;45.550;12.072;2023-02-28T20:41:30;13.90;;;8.85;;
53287;SDS011;39172;45.550;12.072;2023-02-28T20:47:31;12.82;;;8.65;;
53287;SDS011;39172;45.550;12.072;2023-02-28T20:53:33;14.27;;;8.98;;
53287;SDS011;39172;45.550;12.072;2023-02-28T20:59:34;17.13;;;9.80;;
53287;SDS011;39172;45.550;12.072;2023-02-28T21:05:35;13.80;;;9.10;;
53287;SDS011;39172;45.550;12.072;2023-02-28T21:11:36;13.00;;;8.65;;
53287;SDS011;39172;45.550;12.072;2023-02-28T21:17:37;14.23;;;9.50;;
53287;SDS011;39172;45.550;12.072;2023-02-28T21:23:38;13.32;;;8.80;;
53287;SDS011;39172;45.550;12.072;2023-02-28T21:29:39;13.80;;;8.80;;
53287;SDS011;39172;45.550;12.072;2023-02-28T21:35:40;10.98;;;7.15;;
53287;SDS011;39172;45.550;12.072;2023-02-28T21:41:41;10.40;;;6.38;;
53287;SDS011;39172;45.550;12.072;2023-02-28T21:47:42;8.70;;;5.72;;
53287;SDS011;39172;45.550;12.072;2023-02-28T21:53:43;10.07;;;6.57;;
53287;SDS011;39172;45.550;12.072;2023-02-28T21:59:43;8.55;;;6.00;;
53287;SDS011;39172;45.550;12.072;2023-02-28T22:05:44;10.57;;;6.82;;
53287;SDS011;39172;45.550;12.072;2023-02-28T22:11:45;13.27;;;8.63;;
53287;SDS011;39172;45.550;12.072;2023-02-28T22:17:46;15.73;;;10.07;;
53287;SDS011;39172;45.550;12.072;2023-02-28T22:23:47;15.93;;;9.93;;
53287;SDS011;39172;45.550;12.072;2023-02-28T22:29:48;14.52;;;9.18;;
53287;SDS011;39172;45.550;12.072;2023-02-28T22:35:49;14.82;;;9.18;;
53287;SDS011;39172;45.550;12.072;2023-02-28T22:41:53;12.25;;;8.25;;
53287;SDS011;39172;45.550;12.072;2023-02-28T22:47:54;12.63;;;8.15;;
53287;SDS011;39172;45.550;12.072;2023-02-28T22:53:55;12.10;;;8.15;;
53287;SDS011;39172;45.550;12.072;2023-02-28T22:59:56;13.45;;;8.25;;
53287;SDS011;39172;45.550;12.072;2023-02-28T23:05:57;11.98;;;8.32;;
53287;SDS011;39172;45.550;12.072;2023-02-28T23:11:58;12.60;;;8.50;;
53287;SDS011;39172;45.550;12.072;2023-02-28T23:17:58;12.60;;;7.15;;
53287;SDS011;39172;45.550;12.072;2023-02-28T23:24:00;12.50;;;8.02;;
53287;SDS011;39172;45.550;12.072;2023-02-28T23:30:02;11.02;;;6.75;;
53287;SDS011;39172;45.550;12.072;2023-02-28T23:36:07;11.27;;;6.50;;
53287;SDS011;39172;45.550;12.072;2023-02-28T23:42:09;10.35;;;6.35;;
53287;SDS011;39172;45.550;12.072;2023-02-28T23:48:10;10.73;;;6.40;;
53287;SDS011;39172;45.550;12.072;2023-02-28T23:54:11;10.82;;;6.55;;
